Terminal Aerodrome Forecast
Issued by NWS

Home | Current Version | Previous Version | Text Only | Print | Product List | Glossary On
Versions: 1 2 3 4 5 6 7 8 9 10 11 12 13 14 15 16 17 18 19 20 21 22 23 24 25 26 27
000
FTUS45 KBOU 191441 AAA
TAFAPA
TAF AMD
KAPA 191441Z 1915/2012 06008KT 3/4SM -SN OVC004
     FM191600 08008KT 5SM -SN BR BKN007 OVC012
     FM191800 14010G16KT P6SM SCT018 BKN030
     FM192300 06014KT 5SM BR OVC012
     FM200300 35010G15KT 2SM -SN BR OVC004
     FM200800 30008KT 5SM BR SCT005 BKN012=

USA.gov is the U.S. government's official web portal to all federal, state and local government web resources and services.